Main page
METAR-TAF:

METAR-TAF

Airports :

Prince Albert (Glass Field) Airport

Prince Albert, Saskatchewan, Canada

latitude: 53-13N, longitude: 105-41W, elevation: 428 m

Current weather observation

The report was made 1 hour and 9 minutes ago, at 09:00 UTC
Calm wind
Temperature 3°C
Humidity 75%
Pressure 1019 hPa
Visibility: 24.1 km
Few clouds at a height of 10000 ft
Few clouds at a height of 25000 ft

METAR: CYPA 220900Z 00000KT 15SM FEW100 FEW250 03/M01 A3008 RMK AC1CI1 SLP197

Time: 04:09 (10:09 UTC)

Forecast

The report was made 3 hours and 31 minutes ago, at 06:38 UTC
Forecast valid from 22 at 07 UTC to 22 at 19 UTC
Wind 3 kt from variable directions
Visibility: 10 km
Few clouds at a height of 10000 ft
From 22 at 1600 UTC
Wind 8 kt from the North
Visibility: 10 km
Scattered clouds at a height of 10000 ft

TAF: CYPA 220638Z 2207/2219 VRB03KT P6SM FEW100 FM221600 01008KT P6SM SCT100 RMK NXT FCST BY 221300Z

Weather observations and forecasts of more than 4000 airports (METAR and TAF reports).

The available stations are represented by yellow and red dots on the map.

Hover mouse over dot to see the name of the station.

Then click to see weather observations and forecasts.

To change the map : click on the green buttons with a black cross to zoom in, on the green button with a dash to zoom out, or on the green arrows for adjacent maps.


METAR-TAF: